Time;durP1;ratioP1;P1;durP2;ratioP2;P2;SDS_P1;SDS_P2;PMS_P1;PMS_P2;Temp;Humidity;BMP_temperature;BMP_pressure;BME280_temperature;BME280_humidity;BME280_pressure;Samples;Min_cycle;Max_cycle;Signal;HPM_P1;HPM_P2
2022/12/22 03:27:22;;;;;;;79.90;33.23;;;5.00;99.90;;;;;;5121321;27;20222;-82
2022/12/22 03:30:12;;;;;;;75.17;32.43;;;5.00;99.90;;;;;;5125587;27;20219;-83
2022/12/22 03:33:01;;;;;;;74.70;32.97;;;5.00;99.90;;;;;;5096349;28;20223;-82
2022/12/22 03:35:50;;;;;;;70.90;32.37;;;5.00;99.90;;;;;;5104305;27;20223;-86
2022/12/22 03:38:39;;;;;;;68.00;32.80;;;5.00;99.90;;;;;;5133709;27;20378;-84
2022/12/22 03:47:41;;;;;;;70.67;32.93;;;5.00;99.90;;;;;;5113859;27;20246;-83
2022/12/22 03:50:30;;;;;;;74.10;34.67;;;5.00;99.90;;;;;;5102315;27;20242;-83
2022/12/22 03:53:19;;;;;;;74.60;33.80;;;5.00;99.90;;;;;;5090717;28;20706;-81
2022/12/22 03:56:08;;;;;;;71.63;33.60;;;5.10;99.90;;;;;;5092653;28;20302;-82
2022/12/22 03:58:57;;;;;;;70.10;32.47;;;5.10;99.90;;;;;;5100226;27;20267;-82
2022/12/22 04:01:48;;;;;;;66.93;32.60;;;5.10;99.90;;;;;;5093659;28;20215;-82
2022/12/22 04:04:38;;;;;;;73.50;33.23;;;5.10;99.90;;;;;;5121928;27;20283;-81
2022/12/22 04:07:27;;;;;;;69.83;33.47;;;5.10;99.90;;;;;;5095401;27;21090;-81
2022/12/22 04:13:22;;;;;;;71.57;32.37;;;5.10;99.90;;;;;;5111414;27;20770;-81
2022/12/22 04:16:11;;;;;;;66.80;32.97;;;5.10;99.90;;;;;;5098156;27;20218;-85
2022/12/22 04:19:00;;;;;;;67.73;32.03;;;5.10;99.90;;;;;;5105181;27;20223;-83
2022/12/22 04:21:50;;;;;;;64.03;32.43;;;5.10;99.90;;;;;;5094558;27;20247;-83
2022/12/22 04:24:39;;;;;;;65.00;32.20;;;5.20;99.90;;;;;;5095175;27;20740;-84
2022/12/22 04:27:28;;;;;;;61.13;31.23;;;5.20;99.90;;;;;;5122058;27;20226;-84
2022/12/22 04:30:17;;;;;;;65.40;33.20;;;5.20;99.90;;;;;;5089347;27;20285;-84
2022/12/22 04:33:06;;;;;;;59.10;31.20;;;5.20;99.90;;;;;;5095246;27;20305;-84
2022/12/22 04:35:55;;;;;;;65.67;33.07;;;5.20;99.90;;;;;;5125269;27;20227;-84
2022/12/22 04:38:45;;;;;;;62.60;33.17;;;5.20;99.90;;;;;;5123240;27;20222;-84
2022/12/22 04:41:34;;;;;;;58.83;31.43;;;5.30;99.90;;;;;;5102675;27;20787;-85
2022/12/22 04:44:23;;;;;;;64.53;33.00;;;5.20;99.90;;;;;;5098597;28;20223;-84
2022/12/22 04:47:12;;;;;;;63.97;32.57;;;5.30;99.90;;;;;;5102530;27;20223;-84
2022/12/22 04:50:01;;;;;;;61.60;33.43;;;5.20;99.90;;;;;;5094618;27;20289;-82
2022/12/22 04:52:50;;;;;;;64.07;32.87;;;5.30;99.90;;;;;;5095646;27;20372;-80
2022/12/22 04:55:45;;;;;;;61.37;32.07;;;5.30;99.90;;;;;;5118907;27;20226;-82
2022/12/22 04:58:34;;;;;;;62.43;32.67;;;5.30;99.90;;;;;;5090983;27;20706;-81
2022/12/22 05:01:23;;;;;;;65.10;32.90;;;5.40;99.90;;;;;;5095377;27;20218;-81
2022/12/22 05:04:12;;;;;;;65.33;32.20;;;5.30;99.90;;;;;;5105154;27;21015;-81
2022/12/22 05:07:07;;;;;;;61.80;31.97;;;5.40;99.90;;;;;;5125536;27;20227;-81
2022/12/22 05:09:56;;;;;;;65.83;31.60;;;5.30;99.90;;;;;;5102054;27;20238;-81
2022/12/22 05:12:56;;;;;;;65.43;32.53;;;5.30;99.90;;;;;;5124364;27;20228;-80
2022/12/22 05:15:44;;;;;;;67.93;33.20;;;5.20;99.90;;;;;;5117358;27;20230;-79
2022/12/22 05:18:34;;;;;;;62.13;32.80;;;5.20;99.90;;;;;;5141046;27;20213;-80
2022/12/22 05:21:23;;;;;;;60.93;32.97;;;5.20;99.90;;;;;;5096212;28;20222;-79
2022/12/22 05:24:12;;;;;;;66.30;31.90;;;5.20;99.90;;;;;;5093878;27;20757;-80
2022/12/22 05:27:01;;;;;;;66.03;33.53;;;5.20;99.90;;;;;;5117050;27;21057;-79
2022/12/22 05:29:51;;;;;;;65.67;32.77;;;5.30;99.90;;;;;;5091574;28;20211;-81
2022/12/22 05:32:40;;;;;;;60.10;32.10;;;5.40;99.90;;;;;;5098200;27;20688;-81
2022/12/22 05:35:29;;;;;;;58.23;31.57;;;5.40;99.90;;;;;;5091516;28;20250;-81
2022/12/22 05:38:18;;;;;;;60.80;34.90;;;5.40;99.90;;;;;;5097435;27;20219;-81
2022/12/22 05:41:07;;;;;;;58.83;32.20;;;5.40;99.90;;;;;;5095610;27;20712;-80
2022/12/22 05:43:56;;;;;;;64.40;32.73;;;5.40;99.90;;;;;;5095136;27;20306;-81
2022/12/22 05:46:46;;;;;;;63.17;33.63;;;5.30;99.90;;;;;;5095932;27;20227;-80
2022/12/22 05:49:35;;;;;;;57.20;32.93;;;5.30;99.90;;;;;;5098887;27;20223;-81
2022/12/22 05:52:24;;;;;;;61.03;33.13;;;5.40;99.90;;;;;;5100809;27;20227;-81
2022/12/22 05:55:14;;;;;;;58.50;32.40;;;5.30;99.90;;;;;;5097232;27;20302;-81
2022/12/22 05:58:03;;;;;;;62.93;32.83;;;5.40;99.90;;;;;;5104650;27;20218;-83
2022/12/22 06:00:51;;;;;;;55.77;31.77;;;5.40;99.90;;;;;;5125151;27;20217;-81
2022/12/22 06:03:42;;;;;;;58.33;32.53;;;5.30;99.90;;;;;;5102272;27;20288;-87
2022/12/22 06:06:31;;;;;;;60.17;31.73;;;5.40;99.90;;;;;;5103596;27;20219;-84
2022/12/22 06:09:19;;;;;;;57.33;32.13;;;5.40;99.90;;;;;;5102613;27;20230;-83
2022/12/22 06:12:09;;;;;;;59.07;31.13;;;5.40;99.90;;;;;;5127591;27;20975;-82
2022/12/22 06:14:58;;;;;;;54.37;32.33;;;5.40;99.90;;;;;;5091056;27;20239;-83
2022/12/22 06:17:46;;;;;;;57.53;31.40;;;5.50;99.90;;;;;;5092717;27;20247;-82
2022/12/22 06:20:37;;;;;;;50.90;31.57;;;5.50;99.90;;;;;;5116375;27;20232;-81
2022/12/22 06:23:26;;;;;;;55.07;30.80;;;5.50;99.90;;;;;;5088985;27;20234;-81
2022/12/22 06:26:14;;;;;;;55.80;31.47;;;5.40;99.90;;;;;;5093496;27;20236;-84
2022/12/22 06:29:03;;;;;;;55.53;32.27;;;5.40;99.90;;;;;;5096957;27;20591;-80
2022/12/22 06:31:52;;;;;;;53.47;31.33;;;5.40;99.90;;;;;;5093265;27;20223;-80
2022/12/22 06:34:42;;;;;;;57.20;31.43;;;5.40;99.90;;;;;;5092205;27;20227;-82
2022/12/22 06:37:36;;;;;;;56.23;31.67;;;5.40;99.90;;;;;;5118103;27;20218;-84
2022/12/22 06:40:25;;;;;;;55.10;30.40;;;5.50;99.90;;;;;;5094836;27;20807;-82
2022/12/22 06:43:12;;;;;;;52.90;30.13;;;5.60;99.90;;;;;;5118638;27;20234;-82
2022/12/22 06:46:01;;;;;;;58.63;32.90;;;5.60;99.90;;;;;;5091118;27;20221;-83
2022/12/22 06:48:50;;;;;;;55.23;31.63;;;5.50;99.90;;;;;;5097234;28;20229;-82
2022/12/22 06:51:39;;;;;;;58.00;31.73;;;5.50;99.90;;;;;;5121659;27;20685;-84
2022/12/22 06:54:29;;;;;;;52.73;30.07;;;5.50;99.90;;;;;;5102332;27;20215;-84
2022/12/22 06:57:18;;;;;;;52.87;31.70;;;5.50;99.90;;;;;;5094294;27;20590;-86
2022/12/22 07:00:08;;;;;;;54.50;30.70;;;5.50;99.90;;;;;;5117892;27;20216;-91
2022/12/22 07:02:58;;;;;;;53.40;31.10;;;5.50;99.90;;;;;;5103691;27;21274;-86
2022/12/22 07:05:47;;;;;;;48.67;29.37;;;5.50;99.90;;;;;;5094366;28;20605;-84
2022/12/22 07:08:35;;;;;;;52.67;29.50;;;5.50;99.90;;;;;;5095286;28;20326;-83
2022/12/22 07:11:26;;;;;;;48.90;29.17;;;5.50;99.90;;;;;;5094145;28;21487;-83
2022/12/22 07:14:15;;;;;;;47.77;28.80;;;5.50;99.90;;;;;;5091531;27;20225;-83
2022/12/22 07:17:03;;;;;;;52.27;30.33;;;5.60;99.90;;;;;;5103823;27;20223;-81
2022/12/22 07:19:52;;;;;;;50.80;29.97;;;5.50;99.90;;;;;;5109749;27;20246;-84
2022/12/22 07:22:41;;;;;;;50.50;30.27;;;5.50;99.90;;;;;;5109286;27;20206;-86
2022/12/22 07:25:30;;;;;;;56.53;31.60;;;5.50;99.90;;;;;;5143697;27;20228;-81
2022/12/22 07:28:20;;;;;;;47.17;28.93;;;5.50;99.90;;;;;;5136525;27;20625;-81
2022/12/22 07:31:10;;;;;;;49.17;28.67;;;5.50;99.90;;;;;;5129707;27;20235;-78
2022/12/22 07:33:59;;;;;;;49.13;28.53;;;5.50;99.90;;;;;;5102097;27;20219;-82
2022/12/22 07:36:48;;;;;;;47.27;28.57;;;5.50;99.90;;;;;;5114498;28;20552;-83
2022/12/22 07:39:37;;;;;;;47.73;28.43;;;5.50;99.90;;;;;;5103434;27;20806;-81
2022/12/22 07:42:44;;;;;;;49.07;28.67;;;5.50;99.90;;;;;;5099260;27;20238;-81
2022/12/22 07:45:35;;;;;;;51.30;27.73;;;5.50;99.90;;;;;;5093685;27;20242;-85
2022/12/22 07:51:34;;;;;;;48.40;29.33;;;5.60;99.90;;;;;;5095811;28;20222;-80
2022/12/22 07:54:23;;;;;;;54.20;29.20;;;5.60;99.90;;;;;;5098822;28;20222;-82
2022/12/22 07:57:12;;;;;;;48.63;27.90;;;5.60;99.90;;;;;;5094977;27;20250;-81
2022/12/22 08:00:01;;;;;;;45.37;27.60;;;5.50;99.90;;;;;;5094750;27;20237;-82
2022/12/22 08:03:01;;;;;;;47.07;27.93;;;5.70;99.90;;;;;;5101992;27;20927;-82
2022/12/22 08:05:50;;;;;;;46.53;27.20;;;5.60;99.90;;;;;;5100826;27;20349;-82
2022/12/22 08:08:40;;;;;;;42.80;26.60;;;5.60;99.90;;;;;;5091892;28;20220;-82
2022/12/22 08:11:29;;;;;;;46.23;27.07;;;5.60;99.90;;;;;;5092251;28;20620;-81
2022/12/22 08:14:18;;;;;;;51.77;29.03;;;5.50;99.90;;;;;;5102398;27;20287;-82
2022/12/22 08:17:07;;;;;;;47.13;27.00;;;5.50;99.90;;;;;;5099863;28;20582;-80
2022/12/22 08:20:01;;;;;;;50.83;28.03;;;5.50;99.90;;;;;;5095385;27;20230;-80
2022/12/22 08:22:49;;;;;;;43.53;26.70;;;5.50;99.90;;;;;;5096881;27;20593;-82
2022/12/22 08:25:40;;;;;;;44.43;26.93;;;5.60;99.90;;;;;;5092854;27;20258;-83
2022/12/22 08:28:29;;;;;;;50.00;27.97;;;5.60;99.90;;;;;;5095988;28;20215;-84
2022/12/22 08:31:19;;;;;;;44.10;26.33;;;5.60;99.90;;;;;;5101297;27;20223;-83
2022/12/22 08:34:10;;;;;;;48.27;27.73;;;5.70;99.90;;;;;;5092560;27;20806;-85
2022/12/22 08:37:02;;;;;;;44.37;26.67;;;5.90;99.90;;;;;;5096461;27;20238;-81
2022/12/22 08:39:55;;;;;;;50.97;27.70;;;5.80;99.90;;;;;;5124015;27;20222;-84
2022/12/22 08:42:45;;;;;;;52.03;27.87;;;5.80;99.90;;;;;;5108923;27;20310;-84
2022/12/22 08:45:34;;;;;;;48.93;29.47;;;5.70;99.90;;;;;;5094201;28;20228;-83
2022/12/22 08:48:23;;;;;;;47.50;27.67;;;5.70;99.90;;;;;;5092109;28;20229;-84
2022/12/22 08:51:12;;;;;;;44.27;26.87;;;5.60;99.90;;;;;;5122811;27;20333;-83
2022/12/22 08:54:02;;;;;;;43.53;27.27;;;5.70;99.90;;;;;;5092961;27;20227;-81
2022/12/22 08:56:53;;;;;;;42.93;26.53;;;5.70;99.90;;;;;;5089470;27;20249;-81
2022/12/22 08:59:42;;;;;;;43.47;26.30;;;5.70;99.90;;;;;;5095992;27;20249;-84
2022/12/22 09:02:32;;;;;;;43.23;25.53;;;5.70;99.90;;;;;;5094587;28;20221;-83
2022/12/22 09:05:20;;;;;;;42.47;25.37;;;5.80;99.90;;;;;;5090992;27;20326;-83
2022/12/22 09:08:09;;;;;;;44.00;26.00;;;5.70;99.90;;;;;;5093578;27;20310;-80
2022/12/22 09:11:03;;;;;;;45.87;25.73;;;5.70;99.90;;;;;;5098037;28;20595;-83
2022/12/22 09:13:52;;;;;;;40.60;24.83;;;5.70;99.90;;;;;;5091334;27;20295;-83
2022/12/22 09:16:41;;;;;;;41.27;25.87;;;5.70;99.90;;;;;;5098522;28;20223;-83
2022/12/22 09:19:30;;;;;;;44.10;27.43;;;5.80;99.90;;;;;;5093563;27;20235;-83
2022/12/22 09:22:19;;;;;;;47.87;28.67;;;5.80;99.90;;;;;;5095351;28;20468;-85
2022/12/22 09:25:17;;;;;;;51.27;30.53;;;5.80;99.90;;;;;;5094274;27;20235;-84
2022/12/22 09:28:08;;;;;;;48.60;29.80;;;5.80;99.90;;;;;;5123761;27;20225;-83
2022/12/22 09:30:57;;;;;;;47.77;29.97;;;5.90;99.90;;;;;;5116117;27;20227;-84
2022/12/22 09:33:46;;;;;;;49.33;29.47;;;6.00;99.90;;;;;;5109901;27;20223;-85
2022/12/22 09:36:35;;;;;;;49.13;28.17;;;6.00;99.90;;;;;;5127942;27;20240;-84
2022/12/22 09:39:24;;;;;;;45.37;27.47;;;6.10;99.90;;;;;;5118265;27;20698;-83
2022/12/22 09:42:20;;;;;;;45.03;26.70;;;6.00;99.90;;;;;;5098533;27;20268;-84
2022/12/22 09:45:18;;;;;;;43.37;25.80;;;6.10;99.90;;;;;;5093179;28;21074;-82
2022/12/22 09:48:10;;;;;;;43.53;25.70;;;6.10;99.90;;;;;;5119038;27;20217;-82
2022/12/22 09:50:59;;;;;;;43.80;25.50;;;6.20;99.90;;;;;;5098658;27;20249;-83
2022/12/22 09:53:53;;;;;;;42.60;25.13;;;6.20;99.90;;;;;;5092416;27;20310;-84
2022/12/22 09:56:43;;;;;;;41.67;25.00;;;6.10;99.90;;;;;;5095319;27;20704;-83
2022/12/22 09:59:32;;;;;;;41.63;24.23;;;6.10;99.90;;;;;;5094205;28;20211;-83
2022/12/22 10:02:33;;;;;;;37.93;23.60;;;6.20;99.90;;;;;;5095853;27;20291;-83
2022/12/22 10:05:31;;;;;;;40.90;25.30;;;6.30;99.90;;;;;;5096102;27;20216;-84
2022/12/22 10:08:28;;;;;;;41.53;25.50;;;6.20;99.90;;;;;;5101980;27;20226;-82
2022/12/22 10:11:18;;;;;;;41.63;25.80;;;6.20;99.90;;;;;;5092164;27;20221;-85
2022/12/22 10:14:09;;;;;;;44.97;25.90;;;6.20;99.90;;;;;;5104277;27;20561;-85
2022/12/22 10:17:17;;;;;;;43.83;25.57;;;6.30;99.90;;;;;;5126988;27;20364;-84
2022/12/22 10:20:24;;;;;;;47.27;27.20;;;6.30;99.90;;;;;;5099517;28;20265;-84
2022/12/22 10:23:17;;;;;;;45.17;28.00;;;6.30;99.90;;;;;;5095710;27;20222;-84
2022/12/22 10:26:10;;;;;;;44.10;27.33;;;6.30;99.90;;;;;;5096677;28;20226;-85
2022/12/22 10:29:19;;;;;;;50.40;29.07;;;6.20;99.90;;;;;;5123173;27;20384;-84
2022/12/22 10:32:13;;;;;;;46.53;27.53;;;6.20;99.90;;;;;;5098744;27;20302;-84
2022/12/22 10:35:04;;;;;;;48.97;28.50;;;6.30;99.90;;;;;;5127642;27;20219;-84
2022/12/22 10:37:55;;;;;;;45.43;27.73;;;6.20;99.90;;;;;;5094215;27;20224;-84
2022/12/22 10:40:48;;;;;;;47.37;27.27;;;6.20;99.90;;;;;;5096830;27;20302;-85
2022/12/22 10:43:40;;;;;;;50.07;28.93;;;6.30;99.90;;;;;;5100102;28;20314;-84
2022/12/22 10:46:36;;;;;;;50.60;29.27;;;6.30;99.90;;;;;;5103567;27;20259;-84
2022/12/22 10:49:29;;;;;;;47.53;28.57;;;6.30;99.90;;;;;;5096616;28;20230;-83
2022/12/22 10:52:21;;;;;;;47.17;28.60;;;6.30;99.90;;;;;;5090597;27;20767;-82
2022/12/22 10:55:21;;;;;;;51.37;29.23;;;6.20;99.90;;;;;;5101278;27;20346;-83
2022/12/22 10:58:18;;;;;;;49.97;29.60;;;6.20;99.90;;;;;;5094563;28;20230;-83
2022/12/22 11:01:10;;;;;;;52.67;29.80;;;6.20;99.90;;;;;;5121494;27;20219;-82
2022/12/22 11:04:16;;;;;;;52.87;30.90;;;6.20;99.90;;;;;;5096772;28;20587;-82
2022/12/22 11:07:09;;;;;;;54.57;30.67;;;6.20;99.90;;;;;;5100365;27;20330;-83
2022/12/22 11:09:58;;;;;;;55.70;31.07;;;6.20;99.90;;;;;;5096883;28;20671;-83
2022/12/22 11:13:21;;;;;;;53.80;31.37;;;6.20;99.90;;;;;;5131412;27;20215;-82
2022/12/22 11:16:18;;;;;;;47.57;29.57;;;6.20;99.90;;;;;;5108004;27;20218;-81
2022/12/22 11:19:33;;;;;;;50.37;31.77;;;6.30;99.90;;;;;;5095335;27;20218;-81
2022/12/22 11:22:36;;;;;;;54.17;31.67;;;6.30;99.90;;;;;;5097940;28;20235;-81
2022/12/22 11:25:36;;;;;;;52.30;30.27;;;6.30;99.90;;;;;;5122428;27;20708;-81
2022/12/22 11:28:45;;;;;;;53.87;29.77;;;6.40;99.90;;;;;;5090394;28;20245;-82
2022/12/22 11:31:55;;;;;;;52.43;30.70;;;6.50;99.90;;;;;;5098452;28;20238;-82
2022/12/22 11:34:56;;;;;;;53.27;30.77;;;6.60;99.90;;;;;;5096810;28;20216;-82
2022/12/22 11:37:50;;;;;;;52.17;30.70;;;6.60;99.90;;;;;;5115212;27;20214;-82
2022/12/22 11:40:44;;;;;;;50.10;31.20;;;6.50;99.90;;;;;;5108413;27;20227;-81
2022/12/22 11:43:44;;;;;;;54.07;31.97;;;6.50;99.90;;;;;;5111519;27;20237;-80
2022/12/22 11:46:37;;;;;;;56.30;31.33;;;6.60;99.90;;;;;;5091257;28;20215;-82
2022/12/22 11:49:52;;;;;;;49.33;30.20;;;6.70;99.90;;;;;;5102079;28;20223;-82
2022/12/22 11:52:58;;;;;;;48.57;28.83;;;6.70;99.90;;;;;;5098919;27;20870;-83
2022/12/22 11:55:59;;;;;;;51.93;30.60;;;6.80;99.90;;;;;;5100786;28;20212;-83
2022/12/22 11:59:03;;;;;;;47.33;28.67;;;6.90;99.90;;;;;;5106109;28;20228;-81
2022/12/22 12:02:19;;;;;;;53.60;31.87;;;7.00;99.90;;;;;;5093966;28;20693;-83
2022/12/22 12:05:56;;;;;;;43.47;28.43;;;7.00;99.90;;;;;;5093782;27;20224;-84
2022/12/22 12:08:57;;;;;;;50.97;29.77;;;7.10;99.90;;;;;;5083191;28;20223;-82
2022/12/22 12:11:56;;;;;;;52.37;30.33;;;7.10;99.90;;;;;;5108969;27;20883;-82
2022/12/22 12:14:57;;;;;;;54.43;30.07;;;7.10;99.90;;;;;;5098416;27;20334;-82
2022/12/22 12:18:08;;;;;;;49.03;29.57;;;7.10;99.90;;;;;;5108427;27;20220;-82
2022/12/22 12:21:06;;;;;;;48.00;29.07;;;7.10;99.90;;;;;;5099485;28;20305;-82
2022/12/22 12:24:21;;;;;;;46.77;28.93;;;7.00;99.90;;;;;;5090460;27;20218;-82
2022/12/22 12:27:22;;;;;;;51.63;30.23;;;7.00;99.90;;;;;;5099736;28;20239;-81
2022/12/22 12:30:15;;;;;;;47.57;29.07;;;6.90;99.90;;;;;;5094855;27;20702;-82
2022/12/22 12:33:36;;;;;;;49.70;30.13;;;6.80;99.90;;;;;;5091410;28;20223;-83
2022/12/22 12:36:34;;;;;;;52.47;29.20;;;6.80;99.90;;;;;;5094687;28;20305;-83
2022/12/22 12:39:31;;;;;;;48.33;29.37;;;6.90;99.90;;;;;;5100349;28;20645;-83
2022/12/22 12:42:34;;;;;;;43.20;26.83;;;6.90;99.90;;;;;;5093554;27;20216;-83
2022/12/22 12:45:38;;;;;;;40.07;24.37;;;6.80;99.90;;;;;;5100146;28;20317;-83
2022/12/22 12:48:45;;;;;;;34.97;23.07;;;6.60;99.90;;;;;;5098556;28;20323;-83
2022/12/22 12:51:49;;;;;;;37.13;23.70;;;6.40;99.90;;;;;;5093061;28;20728;-83
2022/12/22 12:54:40;;;;;;;35.20;22.20;;;6.40;99.90;;;;;;5105839;28;20306;-83
2022/12/22 12:57:30;;;;;;;39.60;23.83;;;6.30;99.90;;;;;;5106308;27;20252;-83
2022/12/22 13:00:47;;;;;;;39.37;23.50;;;6.40;99.90;;;;;;5096268;27;20259;-83
2022/12/22 13:03:45;;;;;;;37.83;23.33;;;6.40;99.90;;;;;;5099904;27;20210;-83
2022/12/22 13:06:53;;;;;;;37.80;24.43;;;6.40;99.90;;;;;;5090833;28;20226;-83
2022/12/22 13:10:06;;;;;;;39.10;24.00;;;6.40;99.90;;;;;;5101401;27;20731;-83
2022/12/22 13:12:56;;;;;;;38.60;23.57;;;6.40;99.90;;;;;;5103801;27;20221;-83
2022/12/22 13:15:48;;;;;;;39.87;23.47;;;6.30;99.90;;;;;;5100867;27;20305;-83
2022/12/22 13:18:42;;;;;;;38.57;22.93;;;6.30;99.90;;;;;;5096095;28;20219;-83
2022/12/22 13:21:42;;;;;;;39.97;23.43;;;6.30;99.90;;;;;;5104682;27;20257;-83
2022/12/22 13:24:46;;;;;;;38.50;23.93;;;6.30;99.90;;;;;;5098308;27;20225;-83
2022/12/22 13:27:37;;;;;;;38.70;24.27;;;6.30;99.90;;;;;;5127777;27;20247;-82
2022/12/22 13:30:29;;;;;;;42.17;24.03;;;6.30;99.90;;;;;;5089071;28;20352;-83
2022/12/22 13:33:25;;;;;;;44.63;23.70;;;6.30;99.90;;;;;;5103724;27;20215;-82
2022/12/22 13:36:19;;;;;;;50.30;25.30;;;6.40;99.90;;;;;;5121431;27;20227;-83
2022/12/22 13:39:13;;;;;;;44.93;26.20;;;6.40;99.90;;;;;;5099515;27;20691;-83
2022/12/22 13:42:05;;;;;;;38.53;24.57;;;6.40;99.90;;;;;;5110118;27;20218;-82
2022/12/22 13:44:55;;;;;;;39.60;25.03;;;6.50;99.90;;;;;;5119848;28;20223;-83
2022/12/22 13:47:45;;;;;;;43.90;25.97;;;6.40;99.90;;;;;;5109801;28;20223;-83
2022/12/22 13:50:41;;;;;;;44.60;26.13;;;6.40;99.90;;;;;;5104686;27;20232;-82
2022/12/22 13:53:36;;;;;;;42.50;26.10;;;6.40;99.90;;;;;;5095915;27;20230;-83
2022/12/22 13:56:48;;;;;;;40.20;25.67;;;6.40;99.90;;;;;;5100513;27;20223;-83
2022/12/22 13:59:43;;;;;;;40.07;25.80;;;6.40;99.90;;;;;;5089946;27;20236;-82
2022/12/22 14:02:33;;;;;;;46.30;26.50;;;6.50;99.90;;;;;;5091863;28;20233;-82
2022/12/22 14:05:22;;;;;;;44.50;26.03;;;6.50;99.90;;;;;;5098861;28;20224;-82
2022/12/22 14:08:12;;;;;;;46.53;26.93;;;6.50;99.90;;;;;;5095485;27;20225;-82
2022/12/22 14:11:02;;;;;;;42.83;25.93;;;6.50;99.90;;;;;;5105186;27;20224;-82
2022/12/22 14:13:51;;;;;;;43.53;28.27;;;6.50;99.90;;;;;;5124202;27;20219;-82
2022/12/22 14:16:44;;;;;;;42.00;25.67;;;6.40;99.90;;;;;;5098679;28;20717;-83
2022/12/22 14:19:35;;;;;;;42.97;27.13;;;6.50;99.90;;;;;;5100075;28;20395;-83
2022/12/22 14:22:27;;;;;;;39.33;25.33;;;6.50;99.90;;;;;;5103897;28;20225;-83
2022/12/22 14:25:20;;;;;;;45.80;27.13;;;6.50;99.90;;;;;;5095013;27;20579;-83
2022/12/22 14:28:17;;;;;;;41.73;25.37;;;6.50;99.90;;;;;;5126963;27;20230;-83
2022/12/22 14:31:07;;;;;;;41.20;25.73;;;6.50;99.90;;;;;;5098975;28;20258;-83
2022/12/22 14:34:04;;;;;;;43.23;26.37;;;6.60;99.90;;;;;;5094599;28;20230;-83
2022/12/22 14:36:53;;;;;;;41.43;26.67;;;6.60;99.90;;;;;;5109848;27;20229;-83
2022/12/22 14:39:41;;;;;;;41.77;24.97;;;6.60;99.90;;;;;;5102953;27;20227;-83
2022/12/22 14:42:33;;;;;;;42.83;25.13;;;6.50;99.90;;;;;;5089930;28;20834;-82
2022/12/22 14:45:23;;;;;;;44.53;27.03;;;6.60;99.90;;;;;;5125672;27;20225;-83
2022/12/22 14:48:18;;;;;;;39.17;25.40;;;6.50;99.90;;;;;;5096706;28;20231;-82
2022/12/22 14:51:08;;;;;;;41.00;25.17;;;6.60;99.90;;;;;;5097328;28;20220;-83
2022/12/22 14:54:01;;;;;;;40.83;25.87;;;6.60;99.90;;;;;;5122906;27;20227;-83
2022/12/22 14:56:52;;;;;;;39.63;24.80;;;6.50;99.90;;;;;;5097128;28;20230;-83
2022/12/22 14:59:59;;;;;;;39.83;25.53;;;6.60;99.90;;;;;;5102355;28;20227;-83
2022/12/22 15:02:51;;;;;;;39.70;24.63;;;6.60;99.90;;;;;;5096371;27;20210;-83
2022/12/22 15:05:43;;;;;;;42.77;25.30;;;6.70;99.90;;;;;;5114901;27;20251;-83
2022/12/22 15:08:38;;;;;;;37.33;23.70;;;6.70;99.90;;;;;;5096107;28;20223;-82
2022/12/22 15:11:30;;;;;;;40.60;25.53;;;6.70;99.90;;;;;;5094271;28;20224;-81
2022/12/22 15:14:21;;;;;;;37.80;25.10;;;6.70;99.90;;;;;;5104458;27;20275;-81
2022/12/22 15:17:20;;;;;;;37.77;23.40;;;6.70;99.90;;;;;;5092111;27;20318;-82
2022/12/22 15:20:16;;;;;;;40.13;24.13;;;6.70;99.90;;;;;;5100448;27;20231;-81
2022/12/22 15:23:15;;;;;;;37.47;23.60;;;6.70;99.90;;;;;;5098167;27;20239;-83
2022/12/22 15:26:05;;;;;;;39.33;23.80;;;6.50;99.90;;;;;;5099319;27;20231;-82
2022/12/22 15:28:54;;;;;;;40.13;24.90;;;6.50;99.90;;;;;;5091254;28;20212;-82
2022/12/22 15:31:43;;;;;;;40.73;24.67;;;6.50;99.90;;;;;;5091023;28;20231;-82
2022/12/22 15:34:33;;;;;;;38.40;24.87;;;6.60;99.90;;;;;;5093172;27;20230;-83
2022/12/22 15:37:22;;;;;;;43.17;26.07;;;6.60;99.90;;;;;;5098010;28;20841;-82
2022/12/22 15:40:21;;;;;;;43.33;26.67;;;6.50;99.90;;;;;;5097906;27;20850;-82
2022/12/22 15:43:10;;;;;;;38.53;25.73;;;6.60;99.90;;;;;;5101251;28;20222;-82
2022/12/22 15:46:20;;;;;;;41.87;25.80;;;6.70;99.90;;;;;;5088603;28;20217;-77
2022/12/22 15:49:15;;;;;;;40.37;25.43;;;6.60;99.90;;;;;;5104586;28;20220;-83
2022/12/22 15:52:06;;;;;;;41.03;25.97;;;6.50;99.90;;;;;;5065451;28;20230;-83
2022/12/22 15:54:55;;;;;;;42.87;25.17;;;6.60;99.90;;;;;;5062455;28;20327;-81
2022/12/22 15:57:45;;;;;;;41.97;26.07;;;6.60;99.90;;;;;;5059082;28;20231;-83
2022/12/22 16:00:33;;;;;;;43.43;27.07;;;6.50;99.90;;;;;;5057713;28;20224;-82
2022/12/22 16:03:22;;;;;;;42.07;26.47;;;6.50;99.90;;;;;;5058321;28;20898;-80
2022/12/22 16:06:13;;;;;;;44.37;27.03;;;6.50;99.90;;;;;;5063734;28;21048;-81
2022/12/22 16:09:07;;;;;;;42.77;25.17;;;6.50;99.90;;;;;;5045497;28;20263;-81
2022/12/22 16:11:56;;;;;;;43.33;26.63;;;6.60;99.90;;;;;;5061781;28;20220;-81
2022/12/22 16:14:49;;;;;;;40.00;25.57;;;6.60;99.90;;;;;;5063774;28;21594;-81
2022/12/22 16:17:38;;;;;;;44.27;25.87;;;6.60;99.90;;;;;;5066542;28;20231;-81
2022/12/22 16:20:30;;;;;;;40.63;26.17;;;6.50;99.90;;;;;;5084452;28;20651;-82
2022/12/22 16:23:26;;;;;;;43.87;25.93;;;6.50;99.90;;;;;;5063007;28;20260;-82
2022/12/22 16:26:20;;;;;;;44.00;27.17;;;6.50;99.90;;;;;;5091062;28;20755;-82
2022/12/22 16:29:14;;;;;;;45.53;28.00;;;6.40;99.90;;;;;;5063998;28;20226;-82
2022/12/22 16:32:17;;;;;;;42.50;26.17;;;6.40;99.90;;;;;;5085470;27;20603;-80
2022/12/22 16:35:16;;;;;;;42.03;26.33;;;6.50;99.90;;;;;;5055991;28;21036;-81
2022/12/22 16:38:05;;;;;;;43.53;27.40;;;6.50;99.90;;;;;;5056715;28;20269;-83
2022/12/22 16:40:54;;;;;;;47.10;27.77;;;6.50;99.90;;;;;;5065144;28;20228;-82
2022/12/22 16:43:45;;;;;;;48.90;28.33;;;6.50;99.90;;;;;;5071890;27;20236;-78
2022/12/22 16:46:53;;;;;;;44.57;27.40;;;6.40;99.90;;;;;;5126891;27;20219;-81
2022/12/22 16:49:43;;;;;;;47.10;27.77;;;6.50;99.90;;;;;;5119356;27;20231;-83
2022/12/22 16:52:38;;;;;;;46.83;28.63;;;6.50;99.90;;;;;;5109511;27;20223;-82
2022/12/22 16:55:27;;;;;;;47.07;29.13;;;6.50;99.90;;;;;;5123147;27;20234;-83
2022/12/22 16:58:16;;;;;;;48.00;29.17;;;6.40;99.90;;;;;;5112951;27;20285;-80
2022/12/22 17:01:06;;;;;;;50.90;30.23;;;6.40;99.90;;;;;;5130529;27;20259;-82
2022/12/22 17:03:56;;;;;;;49.83;29.90;;;6.40;99.90;;;;;;5101992;27;20578;-82
2022/12/22 17:06:47;;;;;;;49.43;29.73;;;6.40;99.90;;;;;;5127782;27;20219;-81
2022/12/22 17:09:44;;;;;;;47.80;29.37;;;6.40;99.90;;;;;;5099076;27;20219;-82
2022/12/22 17:12:34;;;;;;;50.83;30.60;;;6.40;99.90;;;;;;5096584;28;20215;-83
2022/12/22 17:15:23;;;;;;;50.73;30.23;;;6.40;99.90;;;;;;5098277;28;20230;-83
2022/12/22 17:18:18;;;;;;;51.80;31.20;;;6.50;99.90;;;;;;5098741;27;20227;-82
2022/12/22 17:21:10;;;;;;;49.80;31.03;;;6.40;99.90;;;;;;5114398;27;20330;-82
2022/12/22 17:24:02;;;;;;;48.77;30.77;;;6.40;99.90;;;;;;5098179;27;20229;-83
2022/12/22 17:26:52;;;;;;;54.20;30.70;;;6.40;99.90;;;;;;5098510;27;20270;-82
2022/12/22 17:29:41;;;;;;;48.70;30.73;;;6.30;99.90;;;;;;5099013;28;20832;-83
2022/12/22 17:32:30;;;;;;;52.80;31.20;;;6.30;99.90;;;;;;5095302;28;20213;-83
2022/12/22 17:35:22;;;;;;;49.03;30.37;;;6.40;99.90;;;;;;5093139;28;20273;-83
2022/12/22 17:38:14;;;;;;;49.03;30.73;;;6.40;99.90;;;;;;5101450;27;20240;-82
2022/12/22 17:41:03;;;;;;;51.63;30.50;;;6.40;99.90;;;;;;5093114;28;20289;-83
2022/12/22 17:43:51;;;;;;;49.13;31.37;;;6.40;99.90;;;;;;5087946;27;20223;-83
2022/12/22 17:46:40;;;;;;;50.90;30.30;;;6.40;99.90;;;;;;5102644;27;20618;-79
2022/12/22 17:49:29;;;;;;;53.83;31.77;;;6.50;99.90;;;;;;5099046;28;20218;-82
2022/12/22 17:52:21;;;;;;;50.70;31.00;;;6.40;99.90;;;;;;5118186;27;20220;-82
2022/12/22 17:55:20;;;;;;;48.67;30.23;;;6.40;99.90;;;;;;5098267;27;20278;-81
2022/12/22 17:58:29;;;;;;;51.40;31.60;;;6.50;99.90;;;;;;5097547;27;20219;-80
2022/12/22 18:01:26;;;;;;;51.77;32.30;;;6.50;99.90;;;;;;5121483;27;20304;-80
2022/12/22 18:04:15;;;;;;;53.67;31.67;;;6.50;99.90;;;;;;5117258;27;20220;-80
2022/12/22 18:07:04;;;;;;;51.60;31.53;;;6.40;99.90;;;;;;5088828;27;20698;-78
2022/12/22 18:09:59;;;;;;;49.13;32.00;;;6.50;99.90;;;;;;5092460;27;21156;-80
2022/12/22 18:12:48;;;;;;;53.83;32.43;;;6.50;99.90;;;;;;5088562;28;20703;-80
2022/12/22 18:15:37;;;;;;;54.37;32.47;;;6.50;99.90;;;;;;5116443;27;21012;-81
2022/12/22 18:18:27;;;;;;;53.87;31.40;;;6.50;99.90;;;;;;5092439;27;20218;-81
2022/12/22 18:21:18;;;;;;;56.00;31.53;;;6.50;99.90;;;;;;5100534;27;20259;-83
2022/12/22 18:24:14;;;;;;;49.13;31.57;;;6.50;99.90;;;;;;5094682;28;20725;-81
2022/12/22 18:27:04;;;;;;;52.03;32.37;;;6.60;99.90;;;;;;5109691;27;20226;-82